Time;durP1;ratioP1;P1;durP2;ratioP2;P2;SDS_P1;SDS_P2;PMS_P1;PMS_P2;Temp;Humidity;BMP_temperature;BMP_pressure;BME280_temperature;BME280_humidity;BME280_pressure;Samples;Min_cycle;Max_cycle;Signal;HPM_P1;HPM_P2
2023/05/22 00:01:50;;;;;;;19.40;17.43;;;14.20;99.90;;;;;;5072992;28;20200;-74
2023/05/22 00:04:20;;;;;;;20.17;17.50;;;14.20;99.90;;;;;;5072774;28;20197;-72
2023/05/22 00:06:47;;;;;;;20.15;16.83;;;14.30;99.90;;;;;;5072695;28;20203;-73
2023/05/22 00:09:15;;;;;;;18.90;16.90;;;14.10;99.90;;;;;;5072643;28;20250;-72
2023/05/22 00:11:42;;;;;;;20.00;17.90;;;14.00;99.90;;;;;;5072722;28;20232;-73
2023/05/22 00:14:09;;;;;;;19.60;17.60;;;14.00;99.90;;;;;;5072814;28;20238;-72
2023/05/22 00:16:35;;;;;;;21.83;17.13;;;14.10;99.90;;;;;;5072703;28;20193;-72
2023/05/22 00:19:02;;;;;;;19.87;17.87;;;14.10;99.90;;;;;;5072542;28;20224;-73
2023/05/22 00:21:33;;;;;;;19.80;17.80;;;14.00;99.90;;;;;;5072443;28;20197;-72
2023/05/22 00:24:01;;;;;;;21.50;16.73;;;13.80;99.90;;;;;;5072769;28;20201;-72
2023/05/22 00:26:28;;;;;;;22.03;17.43;;;13.60;99.90;;;;;;5072534;28;20286;-72
2023/05/22 00:28:55;;;;;;;20.07;17.33;;;13.70;99.90;;;;;;5072496;28;20557;-72
2023/05/22 00:31:21;;;;;;;19.30;17.27;;;13.80;99.90;;;;;;5072302;28;20289;-72
2023/05/22 00:33:48;;;;;;;21.43;17.20;;;13.80;99.90;;;;;;5072304;28;20197;-72
2023/05/22 00:36:15;;;;;;;24.13;18.43;;;13.70;99.90;;;;;;5072044;28;20718;-72
2023/05/22 00:38:41;;;;;;;19.43;17.47;;;13.70;99.90;;;;;;5071950;28;20667;-72
2023/05/22 00:41:10;;;;;;;20.27;18.27;;;13.70;99.90;;;;;;5072019;28;20778;-72
2023/05/22 00:43:39;;;;;;;18.93;16.90;;;13.50;99.90;;;;;;5072424;28;20274;-72
2023/05/22 00:46:06;;;;;;;19.80;17.73;;;13.30;99.90;;;;;;5072315;28;20201;-72
2023/05/22 00:48:32;;;;;;;21.00;17.60;;;13.20;99.90;;;;;;5072304;28;20205;-72
2023/05/22 00:51:00;;;;;;;18.87;16.93;;;13.30;99.90;;;;;;5072173;28;20750;-72
2023/05/22 00:53:28;;;;;;;25.37;20.27;;;13.20;99.90;;;;;;5072135;28;20229;-72
2023/05/22 00:55:58;;;;;;;25.63;20.17;;;13.10;99.90;;;;;;5074567;28;20201;-72
2023/05/22 00:58:27;;;;;;;22.93;20.47;;;13.30;99.90;;;;;;5076368;28;20201;-72
2023/05/22 01:00:54;;;;;;;21.93;19.63;;;13.30;99.90;;;;;;5076239;28;20599;-72
2023/05/22 01:03:24;;;;;;;22.07;19.73;;;13.30;99.90;;;;;;5076077;28;20648;-72
2023/05/22 01:05:52;;;;;;;20.60;18.50;;;13.20;99.90;;;;;;5076291;28;20200;-72
2023/05/22 01:08:19;;;;;;;22.40;20.10;;;13.10;99.90;;;;;;5076069;28;20201;-72
2023/05/22 01:10:46;;;;;;;22.33;19.97;;;13.00;99.90;;;;;;5076064;28;20279;-72
2023/05/22 01:13:24;;;;;;;21.57;19.20;;;13.10;99.90;;;;;;5075808;28;20734;-72
2023/05/22 01:16:04;;;;;;;20.17;17.77;;;13.00;99.90;;;;;;5075862;28;20246;-71
2023/05/22 01:18:34;;;;;;;21.47;19.30;;;13.00;99.90;;;;;;5075954;28;20197;-72
2023/05/22 01:21:09;;;;;;;21.67;19.17;;;12.80;99.90;;;;;;5075793;28;20192;-72
2023/05/22 01:23:59;;;;;;;22.23;19.83;;;12.80;99.90;;;;;;5075700;28;20253;-73
2023/05/22 01:26:49;;;;;;;21.87;19.43;;;12.70;99.90;;;;;;5075879;28;20197;-72
2023/05/22 01:29:36;;;;;;;23.03;20.63;;;12.80;99.90;;;;;;5075741;28;20197;-72
2023/05/22 01:32:05;;;;;;;23.07;20.63;;;12.80;99.90;;;;;;5075539;28;20224;-72
2023/05/22 01:34:35;;;;;;;23.90;20.73;;;12.80;99.90;;;;;;5075487;28;20205;-72
2023/05/22 01:37:04;;;;;;;22.13;19.83;;;12.80;99.90;;;;;;5075602;28;20284;-72
2023/05/22 01:39:31;;;;;;;22.87;20.47;;;12.70;99.90;;;;;;5075523;28;20201;-72
2023/05/22 01:41:58;;;;;;;22.73;19.97;;;12.80;99.90;;;;;;5075660;28;20254;-71
2023/05/22 01:44:25;;;;;;;23.47;20.20;;;12.60;99.90;;;;;;5075351;28;20201;-72
2023/05/22 01:46:52;;;;;;;22.20;19.80;;;12.60;99.90;;;;;;5075542;28;20660;-72
2023/05/22 01:49:20;;;;;;;22.30;20.00;;;12.70;99.90;;;;;;5075560;28;20197;-72
2023/05/22 01:51:52;;;;;;;21.73;19.53;;;12.60;99.90;;;;;;5075268;28;20229;-72
2023/05/22 01:54:24;;;;;;;22.77;20.37;;;12.50;99.90;;;;;;5075316;28;20231;-72
2023/05/22 01:56:55;;;;;;;22.10;19.87;;;12.40;99.90;;;;;;5075076;28;20201;-72
2023/05/22 01:59:30;;;;;;;22.13;19.83;;;12.20;99.90;;;;;;5075087;28;20197;-72
2023/05/22 02:02:01;;;;;;;22.03;19.60;;;12.20;99.90;;;;;;5075223;28;20555;-73
2023/05/22 02:04:31;;;;;;;23.07;20.07;;;12.20;99.90;;;;;;5075161;28;20200;-72
2023/05/22 02:06:58;;;;;;;22.67;19.00;;;12.30;99.90;;;;;;5074898;28;20243;-72
2023/05/22 02:09:29;;;;;;;21.13;17.77;;;12.30;99.90;;;;;;5074959;28;20198;-73
2023/05/22 02:11:56;;;;;;;22.00;19.73;;;12.30;99.90;;;;;;5074774;28;20224;-72
2023/05/22 02:14:23;;;;;;;21.77;19.47;;;12.30;99.90;;;;;;5075036;28;20205;-72
2023/05/22 02:16:50;;;;;;;21.23;19.13;;;12.10;99.90;;;;;;5075153;28;20304;-72
2023/05/22 02:19:16;;;;;;;22.70;19.97;;;12.00;99.90;;;;;;5074944;28;20247;-72
2023/05/22 02:21:44;;;;;;;22.87;19.97;;;11.90;99.90;;;;;;5074802;28;20274;-72
2023/05/22 02:24:11;;;;;;;21.20;18.97;;;12.00;99.90;;;;;;5074657;28;20888;-72
2023/05/22 02:26:38;;;;;;;21.87;19.63;;;12.20;99.90;;;;;;5074616;28;20255;-72
2023/05/22 02:29:05;;;;;;;21.40;19.20;;;12.20;99.90;;;;;;5074724;28;20193;-72
2023/05/22 02:31:31;;;;;;;23.07;19.67;;;12.00;99.90;;;;;;5074494;28;20684;-72
2023/05/22 02:33:58;;;;;;;22.23;19.57;;;12.10;99.90;;;;;;5074628;28;20197;-72
2023/05/22 02:36:26;;;;;;;21.70;19.40;;;12.10;99.90;;;;;;5074533;28;20250;-72
2023/05/22 02:38:55;;;;;;;21.97;19.20;;;12.00;99.90;;;;;;5074440;28;20197;-72
2023/05/22 02:41:21;;;;;;;26.43;19.33;;;12.10;99.90;;;;;;5074162;28;20219;-72
2023/05/22 02:43:48;;;;;;;24.77;19.80;;;12.10;99.90;;;;;;5074445;28;20201;-72
2023/05/22 02:46:14;;;;;;;20.63;18.43;;;12.20;99.90;;;;;;5074141;28;20644;-72
2023/05/22 02:48:41;;;;;;;27.53;20.07;;;12.20;99.90;;;;;;5074172;28;20259;-72
2023/05/22 02:51:07;;;;;;;20.93;18.83;;;12.10;99.90;;;;;;5074066;28;20722;-72
2023/05/22 02:53:38;;;;;;;23.10;19.97;;;12.10;99.90;;;;;;5073823;28;20237;-72
2023/05/22 02:56:07;;;;;;;23.23;20.17;;;11.90;99.90;;;;;;5074105;28;20193;-72
2023/05/22 02:58:34;;;;;;;22.77;20.20;;;11.70;99.90;;;;;;5074053;28;20270;-72
2023/05/22 03:01:02;;;;;;;22.33;19.97;;;11.70;99.90;;;;;;5073856;28;20204;-73
2023/05/22 03:03:30;;;;;;;28.37;20.70;;;11.70;99.90;;;;;;5073978;28;20296;-73
2023/05/22 03:05:57;;;;;;;22.90;20.43;;;11.70;99.90;;;;;;5074053;28;20205;-72
2023/05/22 03:08:25;;;;;;;24.27;20.57;;;11.50;99.90;;;;;;5073652;28;20680;-72
2023/05/22 03:10:51;;;;;;;23.57;21.13;;;11.30;99.90;;;;;;5073616;28;20287;-72
2023/05/22 03:13:19;;;;;;;23.47;20.97;;;11.20;99.90;;;;;;5073755;28;20301;-72
2023/05/22 03:15:46;;;;;;;24.47;21.37;;;11.10;99.90;;;;;;5073714;28;20204;-73
2023/05/22 03:18:12;;;;;;;29.13;21.87;;;11.10;99.90;;;;;;5073151;28;20193;-72
2023/05/22 03:20:39;;;;;;;28.93;23.87;;;11.00;99.90;;;;;;5073586;28;20193;-72
2023/05/22 03:23:06;;;;;;;26.47;23.10;;;11.00;99.90;;;;;;5073427;28;20254;-72
2023/05/22 03:25:32;;;;;;;25.73;22.90;;;10.90;99.90;;;;;;5073599;28;20538;-73
2023/05/22 03:27:59;;;;;;;26.03;23.10;;;10.90;99.90;;;;;;5073756;28;20292;-72
2023/05/22 03:30:27;;;;;;;26.27;23.20;;;11.00;99.90;;;;;;5073365;28;20197;-72
2023/05/22 03:32:54;;;;;;;24.70;21.73;;;11.10;99.90;;;;;;5073175;28;20228;-72
2023/05/22 03:35:21;;;;;;;25.67;23.00;;;11.10;99.90;;;;;;5073162;28;20715;-72
2023/05/22 03:37:48;;;;;;;27.70;22.77;;;11.20;99.90;;;;;;5073403;28;20291;-72
2023/05/22 03:40:14;;;;;;;25.17;22.43;;;11.20;99.90;;;;;;5073338;28;20197;-72
2023/05/22 03:42:41;;;;;;;26.30;22.23;;;11.30;99.90;;;;;;5073208;28;20193;-72
2023/05/22 03:45:08;;;;;;;24.77;22.13;;;11.30;99.90;;;;;;5073181;28;20201;-72
2023/05/22 03:47:36;;;;;;;28.30;23.20;;;11.30;99.90;;;;;;5073000;28;20201;-72
2023/05/22 03:50:03;;;;;;;26.97;22.80;;;11.30;99.90;;;;;;5072927;28;20208;-72
2023/05/22 03:52:30;;;;;;;28.20;23.30;;;11.20;99.90;;;;;;5072808;28;20221;-72
2023/05/22 03:54:56;;;;;;;27.00;22.50;;;11.20;99.90;;;;;;5073063;28;20251;-72
2023/05/22 03:57:23;;;;;;;25.73;23.03;;;11.20;99.90;;;;;;5072915;28;20197;-73
2023/05/22 03:59:50;;;;;;;24.77;22.13;;;11.20;99.90;;;;;;5072915;28;20201;-72
2023/05/22 04:02:16;;;;;;;25.77;21.30;;;11.20;99.90;;;;;;5072721;28;20225;-72
2023/05/22 04:04:45;;;;;;;24.13;21.53;;;11.20;99.90;;;;;;5072928;28;20196;-72
2023/05/22 04:07:12;;;;;;;25.30;22.57;;;11.20;99.90;;;;;;5072824;28;20200;-72
2023/05/22 04:09:40;;;;;;;23.93;21.07;;;11.40;99.90;;;;;;5072855;28;20607;-72
2023/05/22 04:12:07;;;;;;;24.50;21.83;;;11.60;99.90;;;;;;5072644;28;20282;-72
2023/05/22 04:14:34;;;;;;;26.97;22.67;;;11.60;99.90;;;;;;5072886;28;20262;-73
2023/05/22 04:17:01;;;;;;;25.50;21.77;;;11.60;99.90;;;;;;5072594;28;20233;-72
2023/05/22 04:19:28;;;;;;;23.17;20.77;;;11.60;99.90;;;;;;5072892;28;20205;-73
2023/05/22 04:21:57;;;;;;;23.20;20.80;;;11.60;99.90;;;;;;5072689;28;20262;-72
2023/05/22 04:24:24;;;;;;;26.90;21.57;;;11.70;99.90;;;;;;5072694;28;20204;-72
2023/05/22 04:26:50;;;;;;;23.57;20.90;;;11.70;99.90;;;;;;5072484;28;20722;-72
2023/05/22 04:29:18;;;;;;;23.60;21.10;;;11.80;99.90;;;;;;5072437;28;20246;-73
2023/05/22 04:31:45;;;;;;;24.10;20.57;;;11.90;99.90;;;;;;5072555;28;20295;-73
2023/05/22 04:34:12;;;;;;;25.40;22.50;;;11.90;99.90;;;;;;5072707;28;20266;-72
2023/05/22 04:36:39;;;;;;;22.40;20.03;;;11.90;99.90;;;;;;5072565;28;20196;-72
2023/05/22 04:39:07;;;;;;;23.47;20.50;;;12.00;99.90;;;;;;5072717;28;20197;-73
2023/05/22 04:41:33;;;;;;;26.77;22.57;;;12.10;99.90;;;;;;5072217;28;20276;-72
2023/05/22 04:44:02;;;;;;;23.63;21.17;;;12.30;99.90;;;;;;5072332;28;20213;-72
2023/05/22 04:46:29;;;;;;;24.20;21.80;;;12.50;99.90;;;;;;5072373;28;20197;-72
2023/05/22 04:48:57;;;;;;;24.53;21.50;;;12.60;99.90;;;;;;5072740;28;20205;-72
2023/05/22 04:51:23;;;;;;;23.80;21.30;;;12.70;99.90;;;;;;5072152;28;20224;-72
2023/05/22 04:53:50;;;;;;;24.17;21.10;;;12.90;99.90;;;;;;5071746;28;20286;-72
2023/05/22 04:56:18;;;;;;;24.27;20.80;;;13.00;99.90;;;;;;5071908;28;20645;-72
2023/05/22 04:58:47;;;;;;;26.13;20.80;;;13.10;99.90;;;;;;5071912;28;20205;-73
2023/05/22 05:01:15;;;;;;;23.20;20.30;;;13.20;99.90;;;;;;5072276;28;20204;-74
2023/05/22 05:03:41;;;;;;;23.47;21.03;;;13.40;99.90;;;;;;5072153;28;20197;-72
2023/05/22 05:06:08;;;;;;;23.67;20.43;;;13.50;99.90;;;;;;5072438;28;20196;-74
2023/05/22 05:08:35;;;;;;;21.50;19.30;;;13.60;99.90;;;;;;5072231;28;20192;-73
2023/05/22 05:11:02;;;;;;;23.23;20.83;;;13.70;99.90;;;;;;5072130;28;20208;-73
2023/05/22 05:13:30;;;;;;;24.00;19.43;;;13.80;99.90;;;;;;5071914;28;20221;-73
2023/05/22 05:15:59;;;;;;;22.23;19.63;;;13.90;99.90;;;;;;5072171;28;20270;-73
2023/05/22 05:18:26;;;;;;;21.33;19.20;;;14.10;99.90;;;;;;5072131;28;20255;-73
2023/05/22 05:20:53;;;;;;;21.13;18.90;;;14.20;99.90;;;;;;5072100;28;20193;-73
2023/05/22 05:23:21;;;;;;;20.37;18.47;;;14.30;99.90;;;;;;5071974;28;20254;-73
2023/05/22 05:25:47;;;;;;;21.20;19.03;;;14.40;99.90;;;;;;5071779;28;20200;-73
2023/05/22 05:28:14;;;;;;;21.53;19.33;;;14.50;99.90;;;;;;5072091;28;20200;-73
2023/05/22 05:30:42;;;;;;;21.83;19.67;;;14.70;99.90;;;;;;5072043;28;20220;-73
2023/05/22 05:33:09;;;;;;;20.85;18.50;;;14.70;99.90;;;;;;5071926;28;20634;-73
2023/05/22 05:35:35;;;;;;;20.37;18.40;;;14.90;99.90;;;;;;5072160;28;20672;-74
2023/05/22 05:38:02;;;;;;;21.58;19.08;;;15.00;99.90;;;;;;5071708;28;20223;-73
2023/05/22 05:40:29;;;;;;;22.33;18.53;;;15.10;99.90;;;;;;5071859;28;20763;-74
2023/05/22 05:42:56;;;;;;;20.60;18.40;;;15.20;99.90;;;;;;5075314;28;20205;-73
2023/05/22 05:45:22;;;;;;;20.52;18.42;;;15.40;99.90;;;;;;5075539;28;20279;-73
2023/05/22 05:47:50;;;;;;;21.42;18.45;;;15.50;99.90;;;;;;5075435;28;20201;-73
2023/05/22 05:50:17;;;;;;;21.38;18.95;;;15.60;99.90;;;;;;5075061;28;20228;-73
2023/05/22 05:52:44;;;;;;;19.23;17.30;;;15.70;99.90;;;;;;5075049;28;20236;-73
2023/05/22 05:55:10;;;;;;;19.08;17.27;;;15.80;99.90;;;;;;5075222;28;20626;-73
2023/05/22 05:57:37;;;;;;;19.30;17.17;;;16.00;99.90;;;;;;5074939;28;20197;-73
2023/05/22 06:00:09;;;;;;;20.17;17.95;;;16.10;99.90;;;;;;5075205;28;20220;-73
2023/05/22 06:02:36;;;;;;;19.85;17.85;;;16.20;99.90;;;;;;5079487;28;20208;-73
2023/05/22 06:05:05;;;;;;;18.48;16.75;;;16.40;99.90;;;;;;5080053;28;20197;-73
2023/05/22 06:07:31;;;;;;;20.25;17.90;;;16.50;99.90;;;;;;5075610;28;20201;-73
2023/05/22 06:09:58;;;;;;;19.00;17.10;;;16.60;99.90;;;;;;5075531;28;20201;-73
2023/05/22 06:12:25;;;;;;;21.17;16.38;;;16.80;99.90;;;;;;5074893;28;20205;-73
2023/05/22 06:14:51;;;;;;;19.48;16.98;;;17.00;99.90;;;;;;5075016;28;20541;-74
2023/05/22 06:17:18;;;;;;;19.42;15.48;;;17.10;99.90;;;;;;5075015;28;20250;-73
2023/05/22 06:19:44;;;;;;;20.20;14.02;;;17.20;99.90;;;;;;5074689;28;20205;-73
2023/05/22 06:22:12;;;;;;;17.30;14.48;;;17.40;99.90;;;;;;5074706;28;20597;-73
2023/05/22 06:24:39;;;;;;;15.63;14.00;;;17.60;99.90;;;;;;5075011;28;20263;-74
2023/05/22 06:27:06;;;;;;;16.25;14.57;;;17.70;99.90;;;;;;5074632;28;20650;-74
2023/05/22 06:29:33;;;;;;;15.13;13.63;;;17.80;99.90;;;;;;5074791;28;20606;-74
2023/05/22 06:31:59;;;;;;;14.18;12.88;;;17.80;99.90;;;;;;5074667;28;20656;-73
2023/05/22 06:34:26;;;;;;;16.33;14.35;;;17.90;99.90;;;;;;5074443;28;20580;-72
2023/05/22 06:36:53;;;;;;;14.95;13.07;;;18.10;99.90;;;;;;5074913;28;20645;-72
2023/05/22 06:39:21;;;;;;;14.18;12.77;;;18.20;99.90;;;;;;5074784;28;20197;-72
2023/05/22 06:41:48;;;;;;;13.90;12.52;;;18.30;99.90;;;;;;5074428;28;20722;-73
2023/05/22 06:44:14;;;;;;;15.13;13.68;;;18.30;99.90;;;;;;5074366;28;20201;-73
2023/05/22 06:46:41;;;;;;;14.27;12.98;;;18.40;99.90;;;;;;5074352;28;20676;-72
2023/05/22 06:49:08;;;;;;;13.35;12.05;;;18.40;99.90;;;;;;5074067;28;20254;-72
2023/05/22 06:51:34;;;;;;;13.70;12.30;;;18.60;99.90;;;;;;5074300;28;20197;-73
2023/05/22 06:54:03;;;;;;;14.45;12.95;;;18.60;99.90;;;;;;5073120;28;20236;-74
2023/05/22 06:56:31;;;;;;;14.05;12.85;;;18.70;99.90;;;;;;5074205;28;20220;-72
2023/05/22 06:58:57;;;;;;;13.68;12.27;;;18.70;99.90;;;;;;5074075;28;20254;-71
2023/05/22 07:01:24;;;;;;;13.18;11.95;;;18.80;99.90;;;;;;5073996;28;20818;-73
2023/05/22 07:03:51;;;;;;;17.20;12.65;;;18.90;99.90;;;;;;5074099;28;20258;-73
2023/05/22 07:06:17;;;;;;;14.23;12.82;;;19.00;99.90;;;;;;5073763;28;20197;-72
2023/05/22 07:08:44;;;;;;;13.50;12.10;;;19.10;99.90;;;;;;5073966;28;20205;-73
2023/05/22 07:11:11;;;;;;;13.13;11.93;;;19.20;99.90;;;;;;5073811;28;20258;-72
2023/05/22 07:13:39;;;;;;;14.07;12.23;;;19.30;99.90;;;;;;5073528;28;20635;-73
2023/05/22 07:16:06;;;;;;;13.07;11.90;;;19.30;99.90;;;;;;5073740;28;20251;-73
2023/05/22 07:18:32;;;;;;;13.43;12.05;;;19.30;99.90;;;;;;5073754;28;20197;-74
2023/05/22 07:20:59;;;;;;;14.10;12.80;;;19.30;99.90;;;;;;5073515;28;20683;-73
2023/05/22 07:23:26;;;;;;;13.50;12.18;;;19.40;99.90;;;;;;5079126;28;20240;-72
2023/05/22 07:25:52;;;;;;;14.55;12.48;;;19.40;99.90;;;;;;5073021;28;20600;-73
2023/05/22 07:28:19;;;;;;;13.93;12.63;;;19.50;99.90;;;;;;5072109;28;20246;-72
2023/05/22 07:30:47;;;;;;;13.23;11.93;;;19.60;99.90;;;;;;5072934;28;20244;-73
2023/05/22 07:33:13;;;;;;;13.60;12.15;;;19.70;99.90;;;;;;5072475;28;20224;-73
2023/05/22 07:35:40;;;;;;;13.48;12.15;;;19.80;99.90;;;;;;5070711;28;20202;-73
2023/05/22 07:38:07;;;;;;;13.23;11.85;;;20.10;99.90;;;;;;5072853;28;20255;-73
2023/05/22 07:40:33;;;;;;;12.90;11.60;;;20.30;99.90;;;;;;5073452;28;20248;-73
2023/05/22 07:43:00;;;;;;;15.35;12.38;;;20.50;99.90;;;;;;5073322;28;20197;-72
2023/05/22 07:45:26;;;;;;;12.40;11.27;;;20.70;99.90;;;;;;5073077;28;20200;-73
2023/05/22 07:47:55;;;;;;;14.07;11.38;;;20.70;99.90;;;;;;5073230;28;20250;-72
2023/05/22 07:50:22;;;;;;;11.68;10.57;;;20.90;99.90;;;;;;5073249;28;20284;-72
2023/05/22 07:52:49;;;;;;;12.57;11.25;;;21.00;99.90;;;;;;5072956;28;20243;-73
2023/05/22 07:55:16;;;;;;;12.70;11.48;;;21.20;99.90;;;;;;5073232;28;20611;-73
2023/05/22 07:57:43;;;;;;;12.15;11.05;;;21.40;99.90;;;;;;5072999;28;20193;-77
2023/05/22 08:00:11;;;;;;;12.93;11.63;;;21.50;99.90;;;;;;5073043;28;20220;-77
2023/05/22 08:02:38;;;;;;;13.38;12.00;;;21.50;99.90;;;;;;5073006;28;20672;-77
2023/05/22 08:05:08;;;;;;;11.82;10.63;;;21.70;99.90;;;;;;5072882;28;20563;-77
2023/05/22 08:07:34;;;;;;;12.13;10.73;;;21.90;99.90;;;;;;5073149;28;20644;-76
2023/05/22 08:10:02;;;;;;;12.50;10.23;;;22.10;99.90;;;;;;5073043;28;20219;-76
2023/05/22 08:12:29;;;;;;;11.23;10.13;;;22.30;99.90;;;;;;5072751;28;20193;-76
2023/05/22 08:14:55;;;;;;;13.98;11.00;;;22.60;99.90;;;;;;5072952;28;20224;-76
2023/05/22 08:17:22;;;;;;;13.25;11.75;;;22.80;99.90;;;;;;5073096;28;20254;-77
2023/05/22 08:19:49;;;;;;;11.50;10.45;;;22.90;99.90;;;;;;5072837;28;20255;-76
2023/05/22 08:22:16;;;;;;;13.27;11.32;;;22.80;99.90;;;;;;5072799;28;20254;-77
2023/05/22 08:24:43;;;;;;;13.32;11.20;;;22.90;99.90;;;;;;5072771;28;20258;-79
2023/05/22 08:27:10;;;;;;;11.65;10.57;;;23.10;99.90;;;;;;5072741;28;20196;-75
2023/05/22 08:29:36;;;;;;;11.85;10.77;;;23.40;99.90;;;;;;5072846;28;20196;-75
2023/05/22 08:32:03;;;;;;;11.68;10.57;;;23.50;99.90;;;;;;5072665;28;20246;-77
2023/05/22 08:34:31;;;;;;;12.10;10.88;;;23.80;99.90;;;;;;5071547;28;20224;-76
2023/05/22 08:36:58;;;;;;;11.75;10.65;;;24.00;99.90;;;;;;5072457;28;20204;-76
2023/05/22 08:39:27;;;;;;;37.42;11.63;;;24.10;99.90;;;;;;5072510;28;20276;-76
2023/05/22 08:41:53;;;;;;;11.50;10.50;;;24.30;99.90;;;;;;5072811;28;20235;-76
2023/05/22 08:44:20;;;;;;;14.18;11.45;;;24.60;99.90;;;;;;5072270;28;20205;-77
2023/05/22 08:46:48;;;;;;;13.90;11.18;;;24.60;99.90;;;;;;5071433;28;20259;-77
2023/05/22 08:49:15;;;;;;;14.27;10.73;;;24.70;99.90;;;;;;5072477;28;20197;-76
2023/05/22 08:51:45;;;;;;;12.20;10.57;;;24.80;99.90;;;;;;5072216;28;20197;-75
2023/05/22 08:54:12;;;;;;;12.93;11.68;;;25.10;99.90;;;;;;5072239;28;20274;-72
2023/05/22 08:56:41;;;;;;;13.68;11.25;;;25.20;99.50;;;;;;5070552;28;20189;-71
2023/05/22 08:59:08;;;;;;;12.43;11.32;;;25.50;99.50;;;;;;5056670;28;20616;-72
2023/05/22 09:01:34;;;;;;;11.85;10.38;;;25.40;98.90;;;;;;5058417;28;20541;-71
2023/05/22 09:04:03;;;;;;;11.02;10.05;;;25.70;99.20;;;;;;5072277;28;20204;-72
2023/05/22 09:06:30;;;;;;;12.30;9.75;;;26.00;97.60;;;;;;5071745;28;20653;-71
2023/05/22 09:08:57;;;;;;;11.32;9.48;;;26.00;96.70;;;;;;5072368;28;20192;-71
2023/05/22 09:11:24;;;;;;;11.77;10.60;;;26.20;93.90;;;;;;5071556;28;20522;-72
2023/05/22 09:13:52;;;;;;;10.02;9.10;;;26.10;93.30;;;;;;5071813;28;20225;-71
2023/05/22 09:16:19;;;;;;;11.18;9.98;;;26.50;93.50;;;;;;5073166;28;20239;-71
2023/05/22 09:18:46;;;;;;;10.45;9.45;;;26.80;92.60;;;;;;5075721;28;20254;-71
2023/05/22 09:21:14;;;;;;;10.60;9.05;;;26.90;89.80;;;;;;5075278;28;20242;-71
2023/05/22 09:23:40;;;;;;;10.65;9.77;;;27.30;89.70;;;;;;5074830;28;20588;-72
2023/05/22 09:26:07;;;;;;;13.18;10.10;;;27.40;89.30;;;;;;5076211;28;20201;-71
2023/05/22 09:28:35;;;;;;;10.73;9.63;;;27.50;87.20;;;;;;5075824;28;20243;-72
2023/05/22 09:31:05;;;;;;;10.02;9.13;;;27.80;87.40;;;;;;5075289;28;20197;-71
2023/05/22 09:33:32;;;;;;;10.40;9.38;;;27.90;85.70;;;;;;5075516;28;20289;-71
2023/05/22 09:35:58;;;;;;;12.40;9.77;;;27.90;82.50;;;;;;5075628;28;20196;-72
2023/05/22 09:38:28;;;;;;;10.68;9.75;;;27.60;83.80;;;;;;5074897;28;20653;-72
2023/05/22 09:40:55;;;;;;;9.82;9.02;;;27.70;79.70;;;;;;5074154;28;20200;-72
2023/05/22 09:43:24;;;;;;;11.20;9.80;;;28.00;79.40;;;;;;5074177;28;20206;-72
2023/05/22 09:45:56;;;;;;;13.38;9.52;;;28.40;77.90;;;;;;5073901;28;20282;-73
2023/05/22 09:48:25;;;;;;;9.73;8.73;;;28.60;76.90;;;;;;5073960;28;20204;-73
2023/05/22 09:50:54;;;;;;;9.27;8.45;;;28.70;71.60;;;;;;5073990;28;20564;-73
2023/05/22 09:53:27;;;;;;;10.32;8.48;;;28.70;68.80;;;;;;5073568;28;20232;-77
2023/05/22 09:55:55;;;;;;;11.00;9.77;;;28.60;69.10;;;;;;5073952;28;20225;-77
2023/05/22 09:58:25;;;;;;;10.77;9.68;;;29.00;68.30;;;;;;5073908;28;20201;-77
2023/05/22 10:00:53;;;;;;;10.52;9.52;;;29.30;69.60;;;;;;5073652;28;20549;-77
2023/05/22 10:03:25;;;;;;;10.32;9.38;;;29.60;69.70;;;;;;5072839;28;20208;-76
2023/05/22 10:05:54;;;;;;;10.88;9.93;;;30.00;65.90;;;;;;5073903;28;20205;-76
2023/05/22 10:08:24;;;;;;;9.00;8.20;;;29.80;63.80;;;;;;5073551;28;20197;-76
2023/05/22 10:10:51;;;;;;;11.05;8.43;;;29.30;63.70;;;;;;5073693;28;20253;-78
2023/05/22 10:13:18;;;;;;;9.30;8.50;;;29.80;62.20;;;;;;5073711;28;20635;-77
2023/05/22 10:15:47;;;;;;;11.25;8.40;;;30.00;58.10;;;;;;5073723;28;20228;-77
2023/05/22 10:18:14;;;;;;;9.20;8.40;;;30.00;54.50;;;;;;5073504;28;20717;-75
2023/05/22 10:20:43;;;;;;;9.23;8.32;;;29.60;57.50;;;;;;5073478;28;20208;-76
2023/05/22 10:23:10;;;;;;;9.32;8.45;;;30.40;57.00;;;;;;5073430;28;20207;-76
2023/05/22 10:25:38;;;;;;;9.13;8.20;;;30.80;56.30;;;;;;5073410;28;20766;-76
2023/05/22 10:28:06;;;;;;;9.85;8.10;;;30.60;53.60;;;;;;5073216;28;20250;-76
2023/05/22 10:30:41;;;;;;;9.43;8.43;;;30.70;54.80;;;;;;5073470;28;20370;-77
2023/05/22 10:33:12;;;;;;;13.25;8.77;;;31.60;53.50;;;;;;5073363;28;20195;-76
2023/05/22 10:35:44;;;;;;;9.52;8.65;;;32.20;51.80;;;;;;5073203;28;20228;-76
2023/05/22 10:38:28;;;;;;;9.35;8.60;;;32.50;50.60;;;;;;5073160;28;20808;-77
2023/05/22 10:40:55;;;;;;;8.95;8.18;;;31.90;47.80;;;;;;5073191;28;20220;-76
2023/05/22 10:43:22;;;;;;;9.43;8.07;;;32.30;47.60;;;;;;5072718;28;20189;-76
2023/05/22 10:45:49;;;;;;;9.52;8.30;;;32.20;45.70;;;;;;5072844;28;20270;-77
2023/05/22 10:48:21;;;;;;;8.73;8.02;;;32.30;46.00;;;;;;5072655;28;20220;-76
2023/05/22 10:50:52;;;;;;;9.40;8.18;;;31.90;44.20;;;;;;5073457;28;20200;-76
2023/05/22 10:53:23;;;;;;;12.48;8.35;;;33.10;41.70;;;;;;5074044;28;20224;-74
2023/05/22 10:55:51;;;;;;;9.35;7.72;;;32.90;42.50;;;;;;5073033;28;20224;-77
2023/05/22 10:58:18;;;;;;;10.05;8.55;;;33.50;42.00;;;;;;5071106;28;20204;-76
2023/05/22 11:00:45;;;;;;;8.63;7.93;;;34.10;40.60;;;;;;5071728;28;20610;-77
2023/05/22 11:03:12;;;;;;;9.25;8.15;;;34.80;39.50;;;;;;5071491;28;20590;-76
2023/05/22 11:05:39;;;;;;;8.60;7.90;;;35.00;37.40;;;;;;5070811;28;20287;-76
2023/05/22 11:08:29;;;;;;;10.07;7.85;;;35.20;37.40;;;;;;5071313;28;20235;-76
2023/05/22 11:10:57;;;;;;;15.65;6.95;;;36.00;36.70;;;;;;5074167;28;20200;-72
2023/05/22 11:13:26;;;;;;;8.05;7.28;;;37.00;34.50;;;;;;5072859;28;20193;-73
2023/05/22 11:15:54;;;;;;;8.15;7.45;;;37.40;31.90;;;;;;5073727;28;20246;-73
2023/05/22 11:18:21;;;;;;;7.55;6.90;;;37.80;29.80;;;;;;5073914;28;20200;-73
2023/05/22 11:20:47;;;;;;;7.85;7.15;;;38.10;28.90;;;;;;5073877;28;20201;-72
2023/05/22 11:23:18;;;;;;;7.40;6.70;;;37.50;27.30;;;;;;5072885;28;20720;-73
2023/05/22 11:25:45;;;;;;;8.32;7.15;;;37.00;26.50;;;;;;5073581;28;20213;-72
2023/05/22 11:28:12;;;;;;;7.75;7.07;;;36.10;26.80;;;;;;5073618;28;20253;-72
2023/05/22 11:30:40;;;;;;;10.38;6.80;;;36.10;26.70;;;;;;5073907;28;20197;-72
2023/05/22 11:33:07;;;;;;;8.05;7.20;;;36.10;26.30;;;;;;5073922;28;20199;-72
2023/05/22 11:35:34;;;;;;;7.90;7.20;;;37.20;25.50;;;;;;5073709;28;20273;-73
2023/05/22 11:38:04;;;;;;;7.95;7.15;;;36.40;25.40;;;;;;5073599;28;20313;-72
2023/05/22 11:40:32;;;;;;;8.93;7.00;;;35.60;24.90;;;;;;5073115;28;20196;-72
2023/05/22 11:42:58;;;;;;;7.47;6.80;;;36.10;25.40;;;;;;5073304;28;20204;-72
2023/05/22 11:45:26;;;;;;;7.95;7.00;;;36.70;24.70;;;;;;5073579;28;20200;-72
2023/05/22 11:47:53;;;;;;;7.20;6.50;;;36.90;25.60;;;;;;5073547;28;20255;-72
2023/05/22 11:50:19;;;;;;;7.85;7.20;;;37.70;24.60;;;;;;5073500;28;20308;-72
2023/05/22 11:52:46;;;;;;;8.02;7.30;;;38.10;24.50;;;;;;5073215;28;20224;-71
2023/05/22 11:55:13;;;;;;;7.43;6.82;;;38.60;23.60;;;;;;5073261;28;20579;-71
2023/05/22 11:57:42;;;;;;;7.70;6.78;;;37.20;22.90;;;;;;5073375;28;20625;-73
2023/05/22 12:00:09;;;;;;;7.43;6.72;;;37.60;23.90;;;;;;5073384;28;20197;-71
2023/05/22 12:02:36;;;;;;;7.93;7.15;;;38.80;22.90;;;;;;5073260;28;20203;-72
2023/05/22 12:05:03;;;;;;;6.70;6.10;;;38.30;21.60;;;;;;5073333;28;20204;-72
2023/05/22 12:07:30;;;;;;;7.80;7.13;;;37.60;21.80;;;;;;5073067;28;20208;-72
2023/05/22 12:09:57;;;;;;;8.25;7.30;;;34.60;23.40;;;;;;5072955;28;20203;-72
2023/05/22 12:12:24;;;;;;;8.43;7.35;;;33.90;24.10;;;;;;5073084;28;20200;-72
2023/05/22 12:14:52;;;;;;;7.72;7.00;;;34.80;25.20;;;;;;5072938;28;20234;-72
2023/05/22 12:17:19;;;;;;;8.00;6.47;;;37.60;23.80;;;;;;5072943;28;20197;-72
2023/05/22 12:19:46;;;;;;;7.90;7.20;;;37.00;22.30;;;;;;5073005;28;20563;-72
2023/05/22 12:22:13;;;;;;;8.23;6.57;;;36.70;22.30;;;;;;5072841;28;20198;-72
2023/05/22 12:24:41;;;;;;;9.35;7.38;;;37.50;22.00;;;;;;5072903;28;20207;-72
2023/05/22 12:27:09;;;;;;;9.30;7.30;;;37.00;21.90;;;;;;5072973;28;20207;-72
2023/05/22 12:29:35;;;;;;;8.45;6.95;;;37.80;22.30;;;;;;5072823;28;20203;-72
2023/05/22 12:32:07;;;;;;;7.20;6.60;;;38.90;22.10;;;;;;5072745;28;20258;-71
2023/05/22 12:34:35;;;;;;;7.47;6.22;;;40.30;20.90;;;;;;5072694;28;20215;-75